Airfield :
LOGIN :

Register | Disclaimer

   EN    FR    IT 

 










Legend :    VFR   Marginal VFR   IFR   Intensive IFR   Very Intensive IFR
Visi :
Ceiling :
>= 8 km
>= 3000ft
5 to 8 km
1000 to 3000 ft
1500m to 5 km
500 to 1000 ft
800 to 1500m
200 to 500 ft
< 800m
< 200 ft
Symbols :   Thunderstorms  Fog  Heavy snow  Heavy precipitations  Wind > 20 kt
SIGMETs :     Misc.  Thunderstorms  Icing  Turbulence  Mountain Waves  Volcanic Ashes






- Airport Elevation : 1682 ft
- IATA code : VIT


LEVT - Vitoria Gasteiz

CURRENT METAR :
  • 080830Z 00000KT 4000 -RA BR SCT015 BKN060 05/05 Q1004

EXPIRED METARs :
  • 080800Z 00000KT 4000 -RA BR SCT015 BKN077 05/05 Q1004
  • 080730Z 20002KT 3500 BR SCT016 BKN077 04/04 Q1005
  • 080700Z 00000KT 3500 BR BKN017 OVC070 04/04 Q1005
  • 080630Z 00000KT 3500 BR BKN015 04/04 Q1005

TAF TAF LEVT
Valid from the 08 at 06:00 until the 09 at 06:00 UTC


080500Z 0806/0906 VRB05KT 6000 SCT005 BKN016 TX09/0812Z TN04/0806Z
PROB40
TEMPO 0806/0906 3000 BR BKN005 BKN010
PROB30
TEMPO 0806/0812 0350 FG VV001
PROB40
TEMPO 0812/0824 3000 RA BKN010
PROB30
TEMPO 0818/0906 0350 FG VV001
PROB40
TEMPO 0900/0903 22010KT



MET'MAP, your aeronautical weather chart ! - Copyright ORBIFLY December 2007 - Disclaimer

ORBIFLY MET'MAP TEAM :

Programming & Development : Alexandra Zaïnal
Original concept : Baudouin d'Aumeries
Technical & hardware support : Manuel Goepfert
Assistance : Marc-Olivier Méhu




SOURCES & CREDITS :

   NOAA